»·PEaware :: N172TT KSAN-KSNA

N172TT :: KSAN-KSNA

FLIGHT INFORMATION

Flight Status: Arrived
Operator: Privately registered:
United States
More flights under this callsign
Pilot: Thomas T. (19955)
Aircraft: CESSNA 172 SKYHAWK
(C172)
More flights by this aircraft type
Origin: KSAN San Diego Intl-Lindbergh
United States
Destination: KSNA John Wayne-Orange Co
United States
More flights between these airports :: More routes between these airports
Route: +
File this flight plan on PilotEdge
Remarks:
Altitude:
(Current/Filed)
0ft
Speed:
(Current/Filed)
0kts
Departed: 22-Sep-18 10:46 AM
Arrived: 22-Sep-18 11:52 AM
Distance/Time
Traveled:
66nm/1:06
Distance/Time
To Go:
Arrived

Flight Plot

Page will automatically refresh every two minutes.


Map Options




Map Legend


Flown Route
Filed Route
Departure Airport
Arrival Airport
Navaid (VOR, NDB)
Fix

Horizontal Profiles

Position Reports

Time Latitude Longitude Heading Altitude Ground
Speed
22-Sep-18 10:36 32.732063 -117.193350 285 17ft 0kts
22-Sep-18 10:37 32.732063 -117.193350 285 17ft 0kts
22-Sep-18 10:38 32.732063 -117.193350 285 17ft 0kts
22-Sep-18 10:39 32.732063 -117.193350 285 17ft 0kts
22-Sep-18 10:40 32.732914 -117.192983 62 16ft 9kts
22-Sep-18 10:41 32.732217 -117.188383 104 15ft 21kts
22-Sep-18 10:42 32.730475 -117.181267 105 14ft 18kts
22-Sep-18 10:43 32.729357 -117.177522 136 17ft 9kts
22-Sep-18 10:44 32.729357 -117.176841 315 18ft 0kts
22-Sep-18 10:45 32.729357 -117.176841 315 18ft 0kts
22-Sep-18 10:46 32.729357 -117.176841 315 18ft 0kts
22-Sep-18 10:47 32.729516 -117.176827 21 19ft 0kts
22-Sep-18 10:48 32.730733 -117.177991 286 19ft 45kts
22-Sep-18 10:49 32.736654 -117.203313 286 534ft 93kts
22-Sep-18 10:50 32.751159 -117.228700 319 1027ft 94kts
22-Sep-18 10:51 32.767067 -117.253136 333 1516ft 94kts
22-Sep-18 10:52 32.792956 -117.253944 359 2007ft 93kts
22-Sep-18 10:53 32.806337 -117.274527 278 2507ft 94kts
22-Sep-18 10:54 32.812438 -117.304459 294 3001ft 92kts
22-Sep-18 10:55 32.825492 -117.329970 335 3485ft 90kts
22-Sep-18 10:56 32.851904 -117.337905 349 3521ft 110kts
22-Sep-18 10:57 32.882735 -117.344622 350 3517ft 107kts
22-Sep-18 10:58 32.911772 -117.350721 350 3514ft 105kts
22-Sep-18 10:59 32.940676 -117.356786 350 3512ft 106kts
22-Sep-18 11:00 32.969741 -117.362886 350 3511ft 106kts
22-Sep-18 11:01 32.995674 -117.380008 328 3511ft 107kts
22-Sep-18 11:02 33.020691 -117.399398 326 3510ft 107kts
22-Sep-18 11:03 33.044934 -117.420008 324 3508ft 107kts
22-Sep-18 11:04 33.066763 -117.440703 319 3876ft 102kts
22-Sep-18 11:05 33.088266 -117.465915 311 4373ft 109kts
22-Sep-18 11:06 33.107719 -117.493517 306 4472ft 119kts
22-Sep-18 11:07 33.136054 -117.509605 347 4456ft 121kts
22-Sep-18 11:08 33.169409 -117.516756 339 4450ft 121kts
22-Sep-18 11:09 33.200352 -117.532274 328 4443ft 121kts
22-Sep-18 11:10 33.226764 -117.549558 325 4435ft 121kts
22-Sep-18 11:11 33.250881 -117.566357 325 4426ft 121kts
22-Sep-18 11:12 33.277704 -117.583614 326 4417ft 121kts
22-Sep-18 11:13 33.301630 -117.600282 324 4408ft 120kts
22-Sep-18 11:14 33.326020 -117.617844 324 4398ft 119kts
22-Sep-18 11:15 33.349898 -117.638029 316 4416ft 115kts
22-Sep-18 11:16 33.370434 -117.659322 312 4527ft 115kts
22-Sep-18 11:17 33.390764 -117.684291 309 4532ft 116kts
22-Sep-18 11:18 33.412501 -117.712263 313 4535ft 117kts
22-Sep-18 11:19 33.436058 -117.739165 314 4538ft 117kts
22-Sep-18 11:20 33.459356 -117.766646 313 4540ft 118kts
22-Sep-18 11:21 33.484897 -117.791159 323 4540ft 119kts
22-Sep-18 11:22 33.511556 -117.815855 323 4539ft 123kts
22-Sep-18 11:23 33.538452 -117.841013 323 4538ft 123kts
22-Sep-18 11:24 33.565500 -117.866376 323 4537ft 123kts
22-Sep-18 11:25 33.592416 -117.890411 323 4536ft 120kts
22-Sep-18 11:26 33.619591 -117.913895 322 4536ft 120kts
22-Sep-18 11:27 33.646838 -117.937323 322 4536ft 120kts
22-Sep-18 11:28 33.673602 -117.960184 322 4534ft 117kts
22-Sep-18 11:29 33.700206 -117.982787 322 4534ft 118kts
22-Sep-18 11:30 33.727216 -118.005641 322 4534ft 119kts
22-Sep-18 11:31 33.754479 -118.028604 322 4534ft 120kts
22-Sep-18 11:32 33.781546 -118.051387 322 4534ft 120kts
22-Sep-18 11:33 33.809199 -118.037434 64 4407ft 133kts
22-Sep-18 11:34 33.822135 -117.995122 68 4106ft 134kts
22-Sep-18 11:35 33.834020 -117.954299 69 4069ft 126kts
22-Sep-18 11:36 33.845357 -117.914811 69 4068ft 124kts
22-Sep-18 11:37 33.858234 -117.876589 62 4067ft 121kts
22-Sep-18 11:38 33.873403 -117.840755 61 4064ft 120kts
22-Sep-18 11:39 33.889225 -117.805241 60 4062ft 120kts
22-Sep-18 11:40 33.905165 -117.769800 60 4060ft 120kts
22-Sep-18 11:41 33.925415 -117.738957 29 4058ft 120kts
22-Sep-18 11:42 33.955033 -117.720184 27 4056ft 120kts
22-Sep-18 11:43 33.982194 -117.698226 64 4044ft 121kts
22-Sep-18 11:44 33.960986 -117.681473 221 3802ft 132kts
22-Sep-18 11:45 33.932320 -117.707617 207 3640ft 130kts
22-Sep-18 11:46 33.900133 -117.727388 205 3502ft 127kts
22-Sep-18 11:47 33.868610 -117.745832 205 3500ft 125kts
22-Sep-18 11:48 33.837680 -117.765100 209 3485ft 126kts
22-Sep-18 11:49 33.805840 -117.786018 208 2951ft 135kts
22-Sep-18 11:50 33.773931 -117.806854 208 2186ft 129kts
22-Sep-18 11:51 33.742453 -117.827100 206 1428ft 128kts
22-Sep-18 11:52 33.713492 -117.845139 209 843ft 88kts
22-Sep-18 11:53 33.695002 -117.856739 205 546ft 70kts
22-Sep-18 11:54 33.678694 -117.866902 205 60ft 35kts
22-Sep-18 11:55 33.678226 -117.869133 266 60ft 5kts
22-Sep-18 11:56 33.678139 -117.869185 90 60ft 0kts

Navigation Log

Ident Type
1. KSAN Airport
2. KSNA Airport